sensor_id;sensor_type;location;lat;lon;timestamp;P1;durP1;ratioP1;P2;durP2;ratioP2
72113;SDS011;59989;46.220;19.888;2023-09-30T00:01:18;1.85;;;0.70;;
72113;SDS011;59989;46.220;19.888;2023-09-30T00:04:21;2.15;;;0.68;;
72113;SDS011;59989;46.220;19.888;2023-09-30T00:07:24;0.90;;;0.30;;
72113;SDS011;59989;46.220;19.888;2023-09-30T00:10:28;0.60;;;0.20;;
72113;SDS011;59989;46.220;19.888;2023-09-30T00:13:32;0.90;;;0.32;;
72113;SDS011;59989;46.220;19.888;2023-09-30T00:16:34;1.58;;;0.60;;
72113;SDS011;59989;46.220;19.888;2023-09-30T00:19:37;1.65;;;0.57;;
72113;SDS011;59989;46.220;19.888;2023-09-30T00:22:40;0.93;;;0.37;;
72113;SDS011;59989;46.220;19.888;2023-09-30T00:25:43;0.90;;;0.40;;
72113;SDS011;59989;46.220;19.888;2023-09-30T00:28:46;1.00;;;0.30;;
72113;SDS011;59989;46.220;19.888;2023-09-30T00:31:48;1.80;;;0.77;;
72113;SDS011;59989;46.220;19.888;2023-09-30T00:34:51;0.80;;;0.30;;
72113;SDS011;59989;46.220;19.888;2023-09-30T00:37:54;1.43;;;0.50;;
72113;SDS011;59989;46.220;19.888;2023-09-30T00:40:57;0.80;;;0.30;;
72113;SDS011;59989;46.220;19.888;2023-09-30T00:43:59;1.98;;;0.60;;
72113;SDS011;59989;46.220;19.888;2023-09-30T00:47:02;0.80;;;0.32;;
72113;SDS011;59989;46.220;19.888;2023-09-30T00:50:05;1.10;;;0.40;;
72113;SDS011;59989;46.220;19.888;2023-09-30T00:53:10;0.87;;;0.37;;
72113;SDS011;59989;46.220;19.888;2023-09-30T00:56:13;1.30;;;0.47;;
72113;SDS011;59989;46.220;19.888;2023-09-30T00:59:16;1.52;;;0.57;;
72113;SDS011;59989;46.220;19.888;2023-09-30T01:02:19;1.00;;;0.50;;
72113;SDS011;59989;46.220;19.888;2023-09-30T01:05:22;1.33;;;0.38;;
72113;SDS011;59989;46.220;19.888;2023-09-30T01:08:24;1.30;;;0.40;;
72113;SDS011;59989;46.220;19.888;2023-09-30T01:11:28;0.90;;;0.25;;
72113;SDS011;59989;46.220;19.888;2023-09-30T01:14:31;1.05;;;0.30;;
72113;SDS011;59989;46.220;19.888;2023-09-30T01:17:34;1.15;;;0.50;;
72113;SDS011;59989;46.220;19.888;2023-09-30T01:20:36;1.25;;;0.50;;
72113;SDS011;59989;46.220;19.888;2023-09-30T01:23:39;7.77;;;0.37;;
72113;SDS011;59989;46.220;19.888;2023-09-30T01:26:42;1.20;;;0.40;;
72113;SDS011;59989;46.220;19.888;2023-09-30T01:29:44;1.05;;;0.50;;
72113;SDS011;59989;46.220;19.888;2023-09-30T01:32:48;0.85;;;0.35;;
72113;SDS011;59989;46.220;19.888;2023-09-30T01:35:51;1.13;;;0.40;;
72113;SDS011;59989;46.220;19.888;2023-09-30T01:38:53;1.00;;;0.53;;
72113;SDS011;59989;46.220;19.888;2023-09-30T01:41:56;1.08;;;0.45;;
72113;SDS011;59989;46.220;19.888;2023-09-30T01:44:59;1.02;;;0.30;;
72113;SDS011;59989;46.220;19.888;2023-09-30T01:48:02;0.52;;;0.20;;
72113;SDS011;59989;46.220;19.888;2023-09-30T01:51:05;0.85;;;0.30;;
72113;SDS011;59989;46.220;19.888;2023-09-30T01:54:08;1.50;;;0.40;;
72113;SDS011;59989;46.220;19.888;2023-09-30T01:57:11;1.30;;;0.68;;
72113;SDS011;59989;46.220;19.888;2023-09-30T02:00:13;1.70;;;0.82;;
72113;SDS011;59989;46.220;19.888;2023-09-30T02:03:17;1.02;;;0.40;;
72113;SDS011;59989;46.220;19.888;2023-09-30T02:06:20;1.13;;;0.35;;
72113;SDS011;59989;46.220;19.888;2023-09-30T02:09:22;1.77;;;0.43;;
72113;SDS011;59989;46.220;19.888;2023-09-30T02:12:26;1.45;;;0.60;;
72113;SDS011;59989;46.220;19.888;2023-09-30T02:15:30;0.77;;;0.35;;
72113;SDS011;59989;46.220;19.888;2023-09-30T02:18:33;1.25;;;0.47;;
72113;SDS011;59989;46.220;19.888;2023-09-30T02:21:36;1.00;;;0.30;;
72113;SDS011;59989;46.220;19.888;2023-09-30T02:24:38;0.80;;;0.30;;
72113;SDS011;59989;46.220;19.888;2023-09-30T02:27:42;1.25;;;0.43;;
72113;SDS011;59989;46.220;19.888;2023-09-30T02:30:45;0.90;;;0.35;;
72113;SDS011;59989;46.220;19.888;2023-09-30T02:33:48;1.10;;;0.55;;
72113;SDS011;59989;46.220;19.888;2023-09-30T02:36:50;0.98;;;0.38;;
72113;SDS011;59989;46.220;19.888;2023-09-30T02:39:53;1.27;;;0.40;;
72113;SDS011;59989;46.220;19.888;2023-09-30T02:42:56;0.63;;;0.30;;
72113;SDS011;59989;46.220;19.888;2023-09-30T02:45:59;1.17;;;0.40;;
72113;SDS011;59989;46.220;19.888;2023-09-30T02:49:02;1.30;;;0.50;;
72113;SDS011;59989;46.220;19.888;2023-09-30T02:52:05;0.80;;;0.35;;
72113;SDS011;59989;46.220;19.888;2023-09-30T02:55:11;0.40;;;0.20;;
72113;SDS011;59989;46.220;19.888;2023-09-30T02:58:14;0.50;;;0.20;;
72113;SDS011;59989;46.220;19.888;2023-09-30T03:01:17;0.70;;;0.30;;
72113;SDS011;59989;46.220;19.888;2023-09-30T03:04:20;0.60;;;0.20;;
72113;SDS011;59989;46.220;19.888;2023-09-30T03:07:22;3.05;;;0.85;;
72113;SDS011;59989;46.220;19.888;2023-09-30T03:10:25;1.30;;;0.50;;
72113;SDS011;59989;46.220;19.888;2023-09-30T03:13:28;0.75;;;0.30;;
72113;SDS011;59989;46.220;19.888;2023-09-30T03:16:31;0.60;;;0.22;;
72113;SDS011;59989;46.220;19.888;2023-09-30T03:19:34;1.17;;;0.40;;
72113;SDS011;59989;46.220;19.888;2023-09-30T03:22:38;3.13;;;0.93;;
72113;SDS011;59989;46.220;19.888;2023-09-30T03:25:42;0.73;;;0.30;;
72113;SDS011;59989;46.220;19.888;2023-09-30T03:28:44;0.90;;;0.43;;
72113;SDS011;59989;46.220;19.888;2023-09-30T03:31:48;0.93;;;0.40;;
72113;SDS011;59989;46.220;19.888;2023-09-30T03:34:52;0.75;;;0.30;;
72113;SDS011;59989;46.220;19.888;2023-09-30T03:37:54;0.93;;;0.35;;
72113;SDS011;59989;46.220;19.888;2023-09-30T03:40:57;0.80;;;0.30;;
72113;SDS011;59989;46.220;19.888;2023-09-30T03:44:00;1.25;;;0.40;;
72113;SDS011;59989;46.220;19.888;2023-09-30T03:47:03;1.00;;;0.35;;
72113;SDS011;59989;46.220;19.888;2023-09-30T03:50:07;0.68;;;0.30;;
72113;SDS011;59989;46.220;19.888;2023-09-30T03:53:17;0.90;;;0.40;;
72113;SDS011;59989;46.220;19.888;2023-09-30T03:56:19;0.43;;;0.20;;
72113;SDS011;59989;46.220;19.888;2023-09-30T03:59:24;0.88;;;0.30;;
72113;SDS011;59989;46.220;19.888;2023-09-30T04:02:28;0.75;;;0.28;;
72113;SDS011;59989;46.220;19.888;2023-09-30T04:05:30;0.95;;;0.35;;
72113;SDS011;59989;46.220;19.888;2023-09-30T04:08:38;0.65;;;0.22;;
72113;SDS011;59989;46.220;19.888;2023-09-30T04:11:41;0.57;;;0.20;;
72113;SDS011;59989;46.220;19.888;2023-09-30T04:14:44;1.38;;;0.47;;
72113;SDS011;59989;46.220;19.888;2023-09-30T04:17:47;0.82;;;0.20;;
72113;SDS011;59989;46.220;19.888;2023-09-30T04:20:50;1.25;;;0.47;;
72113;SDS011;59989;46.220;19.888;2023-09-30T04:23:53;1.13;;;0.47;;
72113;SDS011;59989;46.220;19.888;2023-09-30T04:26:56;0.87;;;0.30;;
72113;SDS011;59989;46.220;19.888;2023-09-30T04:30:04;0.55;;;0.20;;
72113;SDS011;59989;46.220;19.888;2023-09-30T04:33:14;1.13;;;0.47;;
72113;SDS011;59989;46.220;19.888;2023-09-30T04:36:17;1.08;;;0.40;;
72113;SDS011;59989;46.220;19.888;2023-09-30T04:39:19;0.93;;;0.32;;
72113;SDS011;59989;46.220;19.888;2023-09-30T04:42:22;0.80;;;0.37;;
72113;SDS011;59989;46.220;19.888;2023-09-30T04:45:27;0.82;;;0.30;;
72113;SDS011;59989;46.220;19.888;2023-09-30T04:48:30;0.50;;;0.20;;
72113;SDS011;59989;46.220;19.888;2023-09-30T04:51:34;0.73;;;0.30;;
72113;SDS011;59989;46.220;19.888;2023-09-30T04:54:36;1.40;;;0.47;;
72113;SDS011;59989;46.220;19.888;2023-09-30T04:57:39;2.10;;;0.83;;
72113;SDS011;59989;46.220;19.888;2023-09-30T05:00:42;0.40;;;0.10;;
72113;SDS011;59989;46.220;19.888;2023-09-30T05:03:45;0.95;;;0.32;;
72113;SDS011;59989;46.220;19.888;2023-09-30T05:06:51;1.25;;;0.40;;
72113;SDS011;59989;46.220;19.888;2023-09-30T05:09:54;1.25;;;0.50;;
72113;SDS011;59989;46.220;19.888;2023-09-30T05:12:57;1.17;;;0.40;;
72113;SDS011;59989;46.220;19.888;2023-09-30T05:15:59;1.20;;;0.40;;
72113;SDS011;59989;46.220;19.888;2023-09-30T05:19:03;1.08;;;0.50;;
72113;SDS011;59989;46.220;19.888;2023-09-30T05:22:07;1.05;;;0.50;;
72113;SDS011;59989;46.220;19.888;2023-09-30T05:25:09;0.98;;;0.40;;
72113;SDS011;59989;46.220;19.888;2023-09-30T05:28:12;0.60;;;0.20;;
72113;SDS011;59989;46.220;19.888;2023-09-30T05:31:15;0.80;;;0.25;;
72113;SDS011;59989;46.220;19.888;2023-09-30T05:34:18;0.80;;;0.30;;
72113;SDS011;59989;46.220;19.888;2023-09-30T05:37:21;0.82;;;0.30;;
72113;SDS011;59989;46.220;19.888;2023-09-30T05:40:23;1.83;;;0.63;;
72113;SDS011;59989;46.220;19.888;2023-09-30T05:43:32;1.40;;;0.30;;
72113;SDS011;59989;46.220;19.888;2023-09-30T05:46:34;1.27;;;0.60;;
72113;SDS011;59989;46.220;19.888;2023-09-30T05:49:38;0.88;;;0.32;;
72113;SDS011;59989;46.220;19.888;2023-09-30T05:52:40;0.77;;;0.30;;
72113;SDS011;59989;46.220;19.888;2023-09-30T05:55:43;0.88;;;0.30;;
72113;SDS011;59989;46.220;19.888;2023-09-30T05:58:47;0.77;;;0.30;;
72113;SDS011;59989;46.220;19.888;2023-09-30T06:01:50;1.33;;;0.40;;
72113;SDS011;59989;46.220;19.888;2023-09-30T06:04:53;0.93;;;0.30;;
72113;SDS011;59989;46.220;19.888;2023-09-30T06:07:56;1.08;;;0.43;;
72113;SDS011;59989;46.220;19.888;2023-09-30T06:10:59;1.10;;;0.30;;
72113;SDS011;59989;46.220;19.888;2023-09-30T06:14:01;0.53;;;0.20;;
72113;SDS011;59989;46.220;19.888;2023-09-30T06:17:04;1.25;;;0.38;;
72113;SDS011;59989;46.220;19.888;2023-09-30T06:20:08;1.35;;;0.55;;
72113;SDS011;59989;46.220;19.888;2023-09-30T06:23:18;1.13;;;0.40;;
72113;SDS011;59989;46.220;19.888;2023-09-30T06:26:20;1.10;;;0.40;;
72113;SDS011;59989;46.220;19.888;2023-09-30T06:29:23;1.80;;;0.50;;
72113;SDS011;59989;46.220;19.888;2023-09-30T06:32:26;1.20;;;0.45;;
72113;SDS011;59989;46.220;19.888;2023-09-30T06:35:28;1.63;;;0.70;;
72113;SDS011;59989;46.220;19.888;2023-09-30T06:38:39;1.23;;;0.68;;
72113;SDS011;59989;46.220;19.888;2023-09-30T06:41:43;1.08;;;0.50;;
72113;SDS011;59989;46.220;19.888;2023-09-30T06:44:47;1.37;;;0.50;;
72113;SDS011;59989;46.220;19.888;2023-09-30T06:47:50;0.85;;;0.32;;
72113;SDS011;59989;46.220;19.888;2023-09-30T06:50:52;1.33;;;0.57;;
72113;SDS011;59989;46.220;19.888;2023-09-30T06:53:55;1.00;;;0.50;;
72113;SDS011;59989;46.220;19.888;2023-09-30T06:56:57;1.90;;;0.68;;
72113;SDS011;59989;46.220;19.888;2023-09-30T07:00:00;1.10;;;0.30;;
72113;SDS011;59989;46.220;19.888;2023-09-30T07:03:06;1.13;;;0.40;;
72113;SDS011;59989;46.220;19.888;2023-09-30T07:06:08;1.48;;;0.52;;
72113;SDS011;59989;46.220;19.888;2023-09-30T07:09:11;1.50;;;0.50;;
72113;SDS011;59989;46.220;19.888;2023-09-30T07:12:14;0.90;;;0.38;;
72113;SDS011;59989;46.220;19.888;2023-09-30T07:15:17;1.23;;;0.30;;
72113;SDS011;59989;46.220;19.888;2023-09-30T07:18:20;1.80;;;0.63;;
72113;SDS011;59989;46.220;19.888;2023-09-30T07:21:22;1.55;;;0.65;;
72113;SDS011;59989;46.220;19.888;2023-09-30T07:24:25;3.30;;;1.48;;
72113;SDS011;59989;46.220;19.888;2023-09-30T07:27:28;1.52;;;0.55;;
72113;SDS011;59989;46.220;19.888;2023-09-30T07:30:30;2.63;;;0.90;;
72113;SDS011;59989;46.220;19.888;2023-09-30T07:33:33;1.75;;;0.57;;
72113;SDS011;59989;46.220;19.888;2023-09-30T07:36:36;1.83;;;0.57;;
72113;SDS011;59989;46.220;19.888;2023-09-30T07:39:38;2.00;;;0.55;;
72113;SDS011;59989;46.220;19.888;2023-09-30T07:42:41;1.92;;;0.52;;
72113;SDS011;59989;46.220;19.888;2023-09-30T07:45:43;1.10;;;0.30;;
72113;SDS011;59989;46.220;19.888;2023-09-30T07:48:46;2.35;;;1.33;;
72113;SDS011;59989;46.220;19.888;2023-09-30T07:51:49;1.63;;;0.57;;
72113;SDS011;59989;46.220;19.888;2023-09-30T07:54:51;1.95;;;0.60;;
72113;SDS011;59989;46.220;19.888;2023-09-30T07:57:54;1.27;;;0.47;;
72113;SDS011;59989;46.220;19.888;2023-09-30T08:00:58;2.83;;;0.87;;
72113;SDS011;59989;46.220;19.888;2023-09-30T08:04:02;1.77;;;0.65;;
72113;SDS011;59989;46.220;19.888;2023-09-30T08:07:05;2.08;;;0.77;;
72113;SDS011;59989;46.220;19.888;2023-09-30T08:10:08;1.85;;;0.75;;
72113;SDS011;59989;46.220;19.888;2023-09-30T08:13:16;2.10;;;0.80;;
72113;SDS011;59989;46.220;19.888;2023-09-30T08:16:19;1.87;;;0.80;;
72113;SDS011;59989;46.220;19.888;2023-09-30T08:19:23;3.25;;;0.73;;
72113;SDS011;59989;46.220;19.888;2023-09-30T08:22:25;2.05;;;0.88;;
72113;SDS011;59989;46.220;19.888;2023-09-30T08:25:30;2.03;;;0.70;;
72113;SDS011;59989;46.220;19.888;2023-09-30T08:28:32;1.30;;;0.50;;
72113;SDS011;59989;46.220;19.888;2023-09-30T08:31:35;1.63;;;0.63;;
72113;SDS011;59989;46.220;19.888;2023-09-30T08:34:37;3.50;;;1.60;;
72113;SDS011;59989;46.220;19.888;2023-09-30T08:37:40;2.38;;;0.85;;
72113;SDS011;59989;46.220;19.888;2023-09-30T08:40:43;1.67;;;0.75;;
72113;SDS011;59989;46.220;19.888;2023-09-30T08:43:46;1.85;;;0.60;;
72113;SDS011;59989;46.220;19.888;2023-09-30T08:46:49;1.83;;;0.53;;
72113;SDS011;59989;46.220;19.888;2023-09-30T08:49:56;2.22;;;0.90;;
72113;SDS011;59989;46.220;19.888;2023-09-30T08:53:09;8.73;;;0.77;;
72113;SDS011;59989;46.220;19.888;2023-09-30T08:56:13;2.38;;;0.70;;
72113;SDS011;59989;46.220;19.888;2023-09-30T08:59:17;1.92;;;0.70;;
72113;SDS011;59989;46.220;19.888;2023-09-30T09:02:20;2.43;;;0.93;;
72113;SDS011;59989;46.220;19.888;2023-09-30T09:05:24;1.85;;;0.60;;
72113;SDS011;59989;46.220;19.888;2023-09-30T09:08:27;2.72;;;1.00;;
72113;SDS011;59989;46.220;19.888;2023-09-30T09:11:36;2.92;;;1.13;;
72113;SDS011;59989;46.220;19.888;2023-09-30T09:14:40;2.13;;;0.88;;
72113;SDS011;59989;46.220;19.888;2023-09-30T09:17:44;2.07;;;0.80;;
72113;SDS011;59989;46.220;19.888;2023-09-30T09:20:47;2.60;;;0.90;;
72113;SDS011;59989;46.220;19.888;2023-09-30T09:23:50;3.15;;;1.25;;
72113;SDS011;59989;46.220;19.888;2023-09-30T09:27:03;2.40;;;0.90;;
72113;SDS011;59989;46.220;19.888;2023-09-30T09:33:34;1.33;;;0.47;;
72113;SDS011;59989;46.220;19.888;2023-09-30T09:39:48;2.22;;;0.90;;
72113;SDS011;59989;46.220;19.888;2023-09-30T09:42:55;2.67;;;1.05;;
72113;SDS011;59989;46.220;19.888;2023-09-30T09:45:59;2.17;;;0.77;;
72113;SDS011;59989;46.220;19.888;2023-09-30T09:49:05;2.43;;;0.83;;
72113;SDS011;59989;46.220;19.888;2023-09-30T09:52:08;2.28;;;0.85;;
72113;SDS011;59989;46.220;19.888;2023-09-30T09:55:14;1.80;;;0.70;;
72113;SDS011;59989;46.220;19.888;2023-09-30T09:58:18;2.03;;;0.60;;
72113;SDS011;59989;46.220;19.888;2023-09-30T10:01:22;2.08;;;0.82;;
72113;SDS011;59989;46.220;19.888;2023-09-30T10:04:25;1.43;;;0.50;;
72113;SDS011;59989;46.220;19.888;2023-09-30T10:07:34;1.98;;;0.65;;
72113;SDS011;59989;46.220;19.888;2023-09-30T10:10:39;2.78;;;0.80;;
72113;SDS011;59989;46.220;19.888;2023-09-30T10:13:58;2.35;;;0.82;;
72113;SDS011;59989;46.220;19.888;2023-09-30T10:17:05;1.98;;;0.73;;
72113;SDS011;59989;46.220;19.888;2023-09-30T10:20:08;2.10;;;0.83;;
72113;SDS011;59989;46.220;19.888;2023-09-30T10:26:24;2.50;;;0.93;;
72113;SDS011;59989;46.220;19.888;2023-09-30T10:29:39;3.70;;;1.45;;
72113;SDS011;59989;46.220;19.888;2023-09-30T10:35:58;1.90;;;0.70;;
72113;SDS011;59989;46.220;19.888;2023-09-30T10:39:03;3.58;;;0.80;;
72113;SDS011;59989;46.220;19.888;2023-09-30T10:42:06;4.50;;;1.00;;
72113;SDS011;59989;46.220;19.888;2023-09-30T10:45:19;2.55;;;0.82;;
72113;SDS011;59989;46.220;19.888;2023-09-30T10:48:46;2.42;;;0.85;;
72113;SDS011;59989;46.220;19.888;2023-09-30T10:51:51;1.63;;;0.60;;
72113;SDS011;59989;46.220;19.888;2023-09-30T10:55:01;2.20;;;0.70;;
72113;SDS011;59989;46.220;19.888;2023-09-30T10:58:09;1.58;;;0.57;;
72113;SDS011;59989;46.220;19.888;2023-09-30T11:01:17;2.05;;;0.80;;
72113;SDS011;59989;46.220;19.888;2023-09-30T11:04:21;4.65;;;1.00;;
72113;SDS011;59989;46.220;19.888;2023-09-30T11:07:24;2.10;;;0.80;;
72113;SDS011;59989;46.220;19.888;2023-09-30T11:10:28;2.25;;;0.88;;
72113;SDS011;59989;46.220;19.888;2023-09-30T11:13:31;2.30;;;0.80;;
72113;SDS011;59989;46.220;19.888;2023-09-30T11:16:41;2.38;;;0.90;;
72113;SDS011;59989;46.220;19.888;2023-09-30T11:19:46;2.38;;;1.00;;
72113;SDS011;59989;46.220;19.888;2023-09-30T11:22:53;2.37;;;0.73;;
72113;SDS011;59989;46.220;19.888;2023-09-30T11:25:55;2.05;;;0.80;;
72113;SDS011;59989;46.220;19.888;2023-09-30T11:29:06;2.05;;;0.82;;
72113;SDS011;59989;46.220;19.888;2023-09-30T11:32:11;2.97;;;1.17;;
72113;SDS011;59989;46.220;19.888;2023-09-30T11:35:28;3.15;;;1.17;;
72113;SDS011;59989;46.220;19.888;2023-09-30T11:38:31;2.87;;;1.10;;
72113;SDS011;59989;46.220;19.888;2023-09-30T11:41:36;2.88;;;1.20;;
72113;SDS011;59989;46.220;19.888;2023-09-30T11:44:44;2.55;;;1.02;;
72113;SDS011;59989;46.220;19.888;2023-09-30T11:47:49;3.42;;;1.33;;
72113;SDS011;59989;46.220;19.888;2023-09-30T11:50:54;2.80;;;1.07;;
72113;SDS011;59989;46.220;19.888;2023-09-30T11:54:02;3.35;;;1.25;;
72113;SDS011;59989;46.220;19.888;2023-09-30T11:57:07;3.20;;;1.05;;
72113;SDS011;59989;46.220;19.888;2023-09-30T12:00:22;2.92;;;1.08;;
72113;SDS011;59989;46.220;19.888;2023-09-30T12:03:29;3.88;;;1.88;;
72113;SDS011;59989;46.220;19.888;2023-09-30T12:06:37;3.77;;;1.37;;
72113;SDS011;59989;46.220;19.888;2023-09-30T12:09:40;2.92;;;1.20;;
72113;SDS011;59989;46.220;19.888;2023-09-30T12:12:43;3.28;;;1.25;;
72113;SDS011;59989;46.220;19.888;2023-09-30T12:15:46;2.90;;;1.10;;
72113;SDS011;59989;46.220;19.888;2023-09-30T12:18:52;3.05;;;1.15;;
72113;SDS011;59989;46.220;19.888;2023-09-30T12:21:58;2.60;;;1.00;;
72113;SDS011;59989;46.220;19.888;2023-09-30T12:25:01;2.78;;;1.10;;
72113;SDS011;59989;46.220;19.888;2023-09-30T12:28:03;3.38;;;1.05;;
72113;SDS011;59989;46.220;19.888;2023-09-30T12:31:06;1.92;;;0.68;;
72113;SDS011;59989;46.220;19.888;2023-09-30T12:34:11;2.25;;;0.82;;
72113;SDS011;59989;46.220;19.888;2023-09-30T12:37:15;1.87;;;0.67;;
72113;SDS011;59989;46.220;19.888;2023-09-30T12:40:18;3.90;;;1.00;;
72113;SDS011;59989;46.220;19.888;2023-09-30T12:43:21;2.17;;;0.80;;
72113;SDS011;59989;46.220;19.888;2023-09-30T12:46:24;2.97;;;0.98;;
72113;SDS011;59989;46.220;19.888;2023-09-30T12:49:30;3.05;;;1.42;;
72113;SDS011;59989;46.220;19.888;2023-09-30T12:52:33;3.23;;;1.37;;
72113;SDS011;59989;46.220;19.888;2023-09-30T12:55:36;3.78;;;1.52;;
72113;SDS011;59989;46.220;19.888;2023-09-30T12:58:38;3.10;;;1.23;;
72113;SDS011;59989;46.220;19.888;2023-09-30T13:01:41;4.53;;;1.50;;
72113;SDS011;59989;46.220;19.888;2023-09-30T13:04:44;3.33;;;1.30;;
72113;SDS011;59989;46.220;19.888;2023-09-30T13:07:47;3.57;;;1.37;;
72113;SDS011;59989;46.220;19.888;2023-09-30T13:10:49;3.28;;;1.33;;
72113;SDS011;59989;46.220;19.888;2023-09-30T13:13:52;3.05;;;1.15;;
72113;SDS011;59989;46.220;19.888;2023-09-30T13:16:55;1.85;;;0.70;;
72113;SDS011;59989;46.220;19.888;2023-09-30T13:19:57;3.20;;;1.20;;
72113;SDS011;59989;46.220;19.888;2023-09-30T13:23:00;3.83;;;1.60;;
72113;SDS011;59989;46.220;19.888;2023-09-30T13:26:02;3.30;;;1.42;;
72113;SDS011;59989;46.220;19.888;2023-09-30T13:29:05;3.78;;;1.63;;
72113;SDS011;59989;46.220;19.888;2023-09-30T13:32:12;2.80;;;1.08;;
72113;SDS011;59989;46.220;19.888;2023-09-30T13:35:16;2.45;;;0.90;;
72113;SDS011;59989;46.220;19.888;2023-09-30T13:38:18;1.70;;;0.63;;
72113;SDS011;59989;46.220;19.888;2023-09-30T13:41:21;2.88;;;1.02;;
72113;SDS011;59989;46.220;19.888;2023-09-30T13:44:23;5.53;;;1.05;;
72113;SDS011;59989;46.220;19.888;2023-09-30T13:47:26;2.08;;;0.73;;
72113;SDS011;59989;46.220;19.888;2023-09-30T13:50:28;2.20;;;0.70;;
72113;SDS011;59989;46.220;19.888;2023-09-30T13:53:31;1.70;;;0.53;;
72113;SDS011;59989;46.220;19.888;2023-09-30T13:56:34;2.08;;;0.70;;
72113;SDS011;59989;46.220;19.888;2023-09-30T13:59:36;1.50;;;0.57;;
72113;SDS011;59989;46.220;19.888;2023-09-30T14:02:39;1.88;;;0.60;;
72113;SDS011;59989;46.220;19.888;2023-09-30T14:05:41;1.95;;;0.70;;
72113;SDS011;59989;46.220;19.888;2023-09-30T14:08:44;2.03;;;0.67;;
72113;SDS011;59989;46.220;19.888;2023-09-30T14:11:48;1.92;;;0.70;;
72113;SDS011;59989;46.220;19.888;2023-09-30T14:14:50;1.88;;;0.70;;
72113;SDS011;59989;46.220;19.888;2023-09-30T14:17:54;2.10;;;0.70;;
72113;SDS011;59989;46.220;19.888;2023-09-30T14:21:00;2.38;;;1.02;;
72113;SDS011;59989;46.220;19.888;2023-09-30T14:24:03;1.13;;;0.43;;
72113;SDS011;59989;46.220;19.888;2023-09-30T14:27:06;2.20;;;0.77;;
72113;SDS011;59989;46.220;19.888;2023-09-30T14:30:09;1.23;;;0.40;;
72113;SDS011;59989;46.220;19.888;2023-09-30T14:33:12;1.55;;;0.55;;
72113;SDS011;59989;46.220;19.888;2023-09-30T14:36:14;1.33;;;0.47;;
72113;SDS011;59989;46.220;19.888;2023-09-30T14:39:17;1.37;;;0.50;;
72113;SDS011;59989;46.220;19.888;2023-09-30T14:42:21;2.17;;;0.90;;
72113;SDS011;59989;46.220;19.888;2023-09-30T14:45:23;2.75;;;0.68;;
72113;SDS011;59989;46.220;19.888;2023-09-30T14:48:26;3.03;;;0.95;;
72113;SDS011;59989;46.220;19.888;2023-09-30T14:51:28;2.35;;;0.88;;
72113;SDS011;59989;46.220;19.888;2023-09-30T14:54:31;2.03;;;0.83;;
72113;SDS011;59989;46.220;19.888;2023-09-30T14:57:34;1.55;;;0.55;;
72113;SDS011;59989;46.220;19.888;2023-09-30T15:00:36;1.33;;;0.50;;
72113;SDS011;59989;46.220;19.888;2023-09-30T15:03:39;1.55;;;0.60;;
72113;SDS011;59989;46.220;19.888;2023-09-30T15:06:42;1.63;;;0.70;;
72113;SDS011;59989;46.220;19.888;2023-09-30T15:09:44;0.97;;;0.30;;
72113;SDS011;59989;46.220;19.888;2023-09-30T15:12:47;3.90;;;0.65;;
72113;SDS011;59989;46.220;19.888;2023-09-30T15:15:50;1.50;;;0.70;;
72113;SDS011;59989;46.220;19.888;2023-09-30T15:18:52;1.30;;;0.50;;
72113;SDS011;59989;46.220;19.888;2023-09-30T15:21:55;2.03;;;0.75;;
72113;SDS011;59989;46.220;19.888;2023-09-30T15:24:58;1.63;;;0.60;;
72113;SDS011;59989;46.220;19.888;2023-09-30T15:28:00;3.03;;;1.30;;
72113;SDS011;59989;46.220;19.888;2023-09-30T15:31:03;1.90;;;0.65;;
72113;SDS011;59989;46.220;19.888;2023-09-30T15:34:06;1.45;;;0.55;;
72113;SDS011;59989;46.220;19.888;2023-09-30T15:37:09;1.40;;;0.80;;
72113;SDS011;59989;46.220;19.888;2023-09-30T15:40:12;1.40;;;0.50;;
72113;SDS011;59989;46.220;19.888;2023-09-30T15:43:19;2.17;;;0.70;;
72113;SDS011;59989;46.220;19.888;2023-09-30T15:46:24;1.60;;;0.50;;
72113;SDS011;59989;46.220;19.888;2023-09-30T15:49:26;2.50;;;1.00;;
72113;SDS011;59989;46.220;19.888;2023-09-30T15:52:29;1.75;;;0.60;;
72113;SDS011;59989;46.220;19.888;2023-09-30T15:55:32;1.27;;;0.40;;
72113;SDS011;59989;46.220;19.888;2023-09-30T15:58:34;2.08;;;0.77;;
72113;SDS011;59989;46.220;19.888;2023-09-30T16:01:36;2.25;;;0.80;;
72113;SDS011;59989;46.220;19.888;2023-09-30T16:04:40;1.92;;;0.57;;
72113;SDS011;59989;46.220;19.888;2023-09-30T16:07:43;2.47;;;0.90;;
72113;SDS011;59989;46.220;19.888;2023-09-30T16:10:47;3.13;;;0.93;;
72113;SDS011;59989;46.220;19.888;2023-09-30T16:13:49;1.17;;;0.30;;
72113;SDS011;59989;46.220;19.888;2023-09-30T16:16:53;2.00;;;0.77;;
72113;SDS011;59989;46.220;19.888;2023-09-30T16:19:57;2.97;;;0.77;;
72113;SDS011;59989;46.220;19.888;2023-09-30T16:23:00;2.65;;;0.95;;
72113;SDS011;59989;46.220;19.888;2023-09-30T16:26:02;1.10;;;0.40;;
72113;SDS011;59989;46.220;19.888;2023-09-30T16:29:05;1.63;;;0.70;;
72113;SDS011;59989;46.220;19.888;2023-09-30T16:32:08;2.65;;;0.98;;
72113;SDS011;59989;46.220;19.888;2023-09-30T16:35:10;2.10;;;0.60;;
72113;SDS011;59989;46.220;19.888;2023-09-30T16:38:13;2.78;;;0.82;;
72113;SDS011;59989;46.220;19.888;2023-09-30T16:41:15;1.63;;;0.50;;
72113;SDS011;59989;46.220;19.888;2023-09-30T16:44:18;2.65;;;1.02;;
72113;SDS011;59989;46.220;19.888;2023-09-30T16:47:22;2.53;;;0.90;;
72113;SDS011;59989;46.220;19.888;2023-09-30T16:50:25;2.83;;;1.15;;
72113;SDS011;59989;46.220;19.888;2023-09-30T16:53:27;1.95;;;0.80;;
72113;SDS011;59989;46.220;19.888;2023-09-30T16:56:30;1.20;;;0.40;;
72113;SDS011;59989;46.220;19.888;2023-09-30T16:59:33;1.98;;;0.88;;
72113;SDS011;59989;46.220;19.888;2023-09-30T17:02:36;0.95;;;0.32;;
72113;SDS011;59989;46.220;19.888;2023-09-30T17:05:39;1.38;;;0.50;;
72113;SDS011;59989;46.220;19.888;2023-09-30T17:08:43;2.17;;;0.55;;
72113;SDS011;59989;46.220;19.888;2023-09-30T17:11:46;2.27;;;1.17;;
72113;SDS011;59989;46.220;19.888;2023-09-30T17:14:48;1.17;;;0.40;;
72113;SDS011;59989;46.220;19.888;2023-09-30T17:17:51;1.85;;;0.60;;
72113;SDS011;59989;46.220;19.888;2023-09-30T17:20:54;2.20;;;0.93;;
72113;SDS011;59989;46.220;19.888;2023-09-30T17:23:57;2.88;;;0.90;;
72113;SDS011;59989;46.220;19.888;2023-09-30T17:27:00;1.10;;;0.40;;
72113;SDS011;59989;46.220;19.888;2023-09-30T17:30:02;2.22;;;1.10;;
72113;SDS011;59989;46.220;19.888;2023-09-30T17:33:05;3.72;;;1.17;;
72113;SDS011;59989;46.220;19.888;2023-09-30T17:36:08;1.52;;;0.70;;
72113;SDS011;59989;46.220;19.888;2023-09-30T17:39:11;2.03;;;0.70;;
72113;SDS011;59989;46.220;19.888;2023-09-30T17:42:13;1.60;;;0.67;;
72113;SDS011;59989;46.220;19.888;2023-09-30T17:45:17;2.33;;;0.77;;
72113;SDS011;59989;46.220;19.888;2023-09-30T17:48:19;2.30;;;0.90;;
72113;SDS011;59989;46.220;19.888;2023-09-30T17:51:24;4.82;;;1.20;;
72113;SDS011;59989;46.220;19.888;2023-09-30T17:54:26;1.25;;;0.45;;
72113;SDS011;59989;46.220;19.888;2023-09-30T17:57:29;1.03;;;0.40;;
72113;SDS011;59989;46.220;19.888;2023-09-30T18:00:34;4.22;;;0.88;;
72113;SDS011;59989;46.220;19.888;2023-09-30T18:03:36;2.30;;;0.80;;
72113;SDS011;59989;46.220;19.888;2023-09-30T18:06:39;3.15;;;0.80;;
72113;SDS011;59989;46.220;19.888;2023-09-30T18:09:42;2.08;;;0.55;;
72113;SDS011;59989;46.220;19.888;2023-09-30T18:12:44;1.33;;;0.53;;
72113;SDS011;59989;46.220;19.888;2023-09-30T18:15:47;2.83;;;1.10;;
72113;SDS011;59989;46.220;19.888;2023-09-30T18:18:50;1.80;;;0.73;;
72113;SDS011;59989;46.220;19.888;2023-09-30T18:21:53;2.30;;;0.93;;